Time;durP1;ratioP1;P1;durP2;ratioP2;P2;SDS_P1;SDS_P2;PMS_P1;PMS_P2;Temp;Humidity;BMP_temperature;BMP_pressure;BME280_temperature;BME280_humidity;BME280_pressure;Samples;Min_cycle;Max_cycle;Signal;HPM_P1;HPM_P2
2023/01/20 00:02:24;;;;;;;;;;;;;;;0.20;100.00;98810.25;5051227;28;19971;-85
2023/01/20 00:04:50;;;;;;;;;;;;;;;0.17;100.00;98807.88;5059278;28;19916;-84
2023/01/20 00:07:15;;;;;;;;;;;;;;;0.12;100.00;98814.28;5056267;28;19917;-82
2023/01/20 00:09:40;;;;;;;;;;;;;;;0.03;100.00;98812.25;5055776;28;19916;-84
2023/01/20 00:12:06;;;;;;;;;;;;;;;0.02;100.00;98808.81;5056433;28;19917;-83
2023/01/20 00:14:31;;;;;;;;;;;;;;;-0.05;100.00;98804.94;5061330;28;19959;-84
2023/01/20 00:16:58;;;;;;;;;;;;;;;-0.06;100.00;98808.47;5061342;28;19913;-85
2023/01/20 00:19:24;;;;;;;;;;;;;;;-0.04;100.00;98806.59;5055184;28;20316;-84
2023/01/20 00:21:50;;;;;;;;;;;;;;;-0.09;100.00;98806.06;5044434;28;19962;-82
2023/01/20 00:24:15;;;;;;;;;;;;;;;-0.13;100.00;98802.84;5062435;28;19947;-85
2023/01/20 00:26:41;;;;;;;;;;;;;;;-0.21;100.00;98805.06;5060687;28;19917;-85
2023/01/20 00:29:07;;;;;;;;;;;;;;;-0.16;100.00;98807.34;5055177;28;19917;-85
2023/01/20 00:31:33;;;;;;;;;;;;;;;-0.15;100.00;98811.63;5057750;28;19928;-85
2023/01/20 00:33:59;;;;;;;;;;;;;;;-0.14;100.00;98815.88;5068501;28;19984;-86
2023/01/20 00:36:26;;;;;;;;;;;;;;;-0.14;100.00;98815.88;5045523;28;19913;-86
2023/01/20 00:38:51;;;;;;;;;;;;;;;-0.14;100.00;98813.28;5066069;28;19974;-85
2023/01/20 00:41:17;;;;;;;;;;;;;;;-0.17;100.00;98816.06;5063660;28;19917;-85
2023/01/20 00:43:43;;;;;;;;;;;;;;;-0.21;100.00;98819.78;5064216;28;19912;-85
2023/01/20 00:46:08;;;;;;;;;;;;;;;-0.22;100.00;98812.91;5068758;28;19917;-86
2023/01/20 00:48:34;;;;;;;;;;;;;;;-0.25;100.00;98808.75;5071616;28;19916;-86
2023/01/20 00:51:00;;;;;;;;;;;;;;;-0.30;100.00;98821.19;5061172;28;19917;-85
2023/01/20 00:53:26;;;;;;;;;;;;;;;-0.48;100.00;98822.28;5066224;28;19962;-86
2023/01/20 00:55:51;;;;;;;;;;;;;;;-0.61;100.00;98818.75;5053128;28;19936;-85
2023/01/20 00:58:17;;;;;;;;;;;;;;;-0.64;100.00;98821.50;5068264;28;19955;-85
2023/01/20 01:00:45;;;;;;;;;;;;;;;-0.75;100.00;98818.72;5070022;28;19916;-86
2023/01/20 01:03:10;;;;;;;;;;;;;;;-0.84;100.00;98814.91;5065641;28;19916;-86
2023/01/20 01:05:36;;;;;;;;;;;;;;;-0.94;100.00;98813.78;5061493;28;19916;-86
2023/01/20 01:08:02;;;;;;;;;;;;;;;-1.00;100.00;98820.13;5050479;28;19924;-85
2023/01/20 01:10:27;;;;;;;;;;;;;;;-1.10;100.00;98808.66;5065553;28;19905;-86
2023/01/20 01:12:53;;;;;;;15.77;12.77;;;;;;;-1.17;100.00;98817.69;5065162;28;19921;-85
2023/01/20 01:15:18;;;;;;;15.27;11.75;;;;;;;-1.15;100.00;98815.84;5068483;28;20071;-85
2023/01/20 01:17:46;;;;;;;17.60;14.20;;;;;;;-1.16;100.00;98818.53;5059473;28;20046;-85
2023/01/20 01:20:13;;;;;;;16.25;13.00;;;;;;;-1.13;100.00;98824.38;5060157;28;20040;-85
2023/01/20 01:22:39;;;;;;;18.08;12.13;;;;;;;-1.05;100.00;98829.09;5063909;28;20088;-85
2023/01/20 01:25:05;;;;;;;17.50;11.45;;;;;;;-1.02;100.00;98823.75;5057736;28;20029;-87
2023/01/20 01:27:32;;;;;;;16.27;11.18;;;;;;;-1.06;100.00;98835.22;5038368;28;20112;-86
2023/01/20 01:29:57;;;;;;;15.45;11.52;;;;;;;-1.07;100.00;98828.38;5054212;28;20056;-84
2023/01/20 01:32:23;;;;;;;15.70;12.20;;;;;;;-1.07;100.00;98830.97;5062797;28;20037;-85
2023/01/20 01:34:49;;;;;;;15.45;11.98;;;;;;;-1.04;100.00;98828.19;5060077;28;20034;-84
2023/01/20 01:37:14;;;;;;;14.90;12.10;;;;;;;-1.05;100.00;98822.16;5055569;28;20037;-86
2023/01/20 01:39:40;;;;;;;17.98;13.20;;;;;;;-1.07;100.00;98821.44;5052399;28;20030;-86
2023/01/20 01:42:13;;;;;;;19.60;12.43;;;;;;;-1.04;100.00;98828.19;5061310;28;20028;-84
2023/01/20 01:45:08;;;;;;;14.68;12.45;;;;;;;-1.02;100.00;98827.19;5057902;28;20029;-85
2023/01/20 01:47:49;;;;;;;16.10;11.57;;;;;;;-0.99;100.00;98828.75;5053694;28;20179;-86
2023/01/20 01:50:19;;;;;;;16.63;11.98;;;;;;;-0.98;100.00;98828.66;5051652;28;20048;-85
2023/01/20 01:52:47;;;;;;;;;;;;;;;-0.92;100.00;98828.31;5055770;28;20033;-86
2023/01/20 01:55:17;;;;;;;14.00;10.68;;;;;;;-0.88;100.00;98823.78;5058252;28;19940;-85
2023/01/20 01:57:47;;;;;;;16.13;12.10;;;;;;;-0.90;100.00;98830.81;5047784;28;20047;-86
2023/01/20 02:00:13;;;;;;;;;;;;;;;-0.91;100.00;98834.31;5044189;28;20045;-84
2023/01/20 02:02:42;;;;;;;16.60;11.88;;;;;;;-0.95;100.00;98830.25;5054002;28;19924;-84
2023/01/20 02:05:08;;;;;;;13.95;11.43;;;;;;;-0.90;100.00;98838.59;5050725;28;20029;-85
2023/01/20 02:07:34;;;;;;;15.85;12.50;;;;;;;-0.87;100.00;98833.22;5036790;28;20068;-85
2023/01/20 02:10:00;;;;;;;14.75;12.00;;;;;;;-0.86;100.00;98835.72;5036457;28;20358;-85
2023/01/20 02:12:27;;;;;;;19.75;13.02;;;;;;;-0.84;100.00;98840.81;5034286;28;20056;-86
2023/01/20 02:14:57;;;;;;;18.10;12.07;;;;;;;-0.86;100.00;98843.50;5040936;28;20111;-84
2023/01/20 02:17:32;;;;;;;14.45;12.18;;;;;;;-0.88;100.00;98839.31;5052444;28;20056;-85
2023/01/20 02:20:07;;;;;;;15.45;12.45;;;;;;;-0.93;100.00;98836.16;5056835;28;20435;-86
2023/01/20 02:22:46;;;;;;;17.25;12.55;;;;;;;-0.96;100.00;98833.75;5060961;28;20044;-86
2023/01/20 02:25:36;;;;;;;16.48;12.00;;;;;;;-1.00;100.00;98835.69;5055861;28;20074;-85
2023/01/20 02:28:14;;;;;;;;;;;;;;;-1.01;100.00;98838.38;5056611;28;20037;-85
2023/01/20 02:30:50;;;;;;;;;;;;;;;-1.11;100.00;98832.03;5056417;28;19921;-85
2023/01/20 02:33:21;;;;;;;;;;;;;;;-1.15;100.00;98835.72;5049916;28;19940;-85
2023/01/20 02:35:50;;;;;;;;;;;;;;;-1.20;100.00;98832.56;5061079;28;19917;-85
2023/01/20 02:38:18;;;;;;;;;;;;;;;-1.21;100.00;98841.25;5052237;28;19987;-85
2023/01/20 02:40:47;;;;;;;;;;;;;;;-1.33;100.00;98832.44;5063770;28;19917;-84
2023/01/20 02:43:19;;;;;;;;;;;;;;;-1.33;100.00;98832.44;5042916;28;19925;-83
2023/01/20 02:45:47;;;;;;;;;;;;;;;-1.37;100.00;98836.97;5056513;28;19939;-82
2023/01/20 02:48:21;;;;;;;;;;;;;;;-1.47;100.00;98840.16;5049443;28;19927;-83
2023/01/20 02:50:53;;;;;;;;;;;;;;;-1.48;100.00;98834.13;5043945;28;19921;-83
2023/01/20 02:53:20;;;;;;;;;;;;;;;-1.46;100.00;98834.03;5051428;28;20024;-84
2023/01/20 02:55:47;;;;;;;;;;;;;;;-1.50;100.00;98830.78;5054785;28;19916;-84
2023/01/20 02:58:32;;;;;;;;;;;;;;;-1.46;100.00;98829.69;5048756;28;19920;-86
2023/01/20 03:01:02;;;;;;;;;;;;;;;-1.45;100.00;98827.94;5056921;28;19924;-86
2023/01/20 03:03:31;;;;;;;;;;;;;;;-1.41;100.00;98826.84;5053241;28;19920;-85
2023/01/20 03:05:58;;;;;;;;;;;;;;;-1.40;100.00;98831.94;5051856;28;19962;-82
2023/01/20 03:08:25;;;;;;;;;;;;;;;-1.41;100.00;98835.44;5051253;28;19923;-83
2023/01/20 03:10:53;;;;;;;;;;;;;;;-1.45;100.00;98833.13;5056647;28;19904;-83
2023/01/20 03:13:18;;;;;;;;;;;;;;;-1.48;100.00;98838.47;5066519;28;19954;-84
2023/01/20 03:15:50;;;;;;;;;;;;;;;-1.53;100.00;98836.13;5065847;28;19912;-86
2023/01/20 03:18:16;;;;;;;;;;;;;;;-1.54;100.00;98839.66;5043332;28;19916;-82
2023/01/20 03:20:41;;;;;;;;;;;;;;;-1.65;100.00;98847.97;5046123;28;20063;-84
2023/01/20 03:23:07;;;;;;;;;;;;;;;-1.65;100.00;98847.16;5052460;28;19924;-83
2023/01/20 03:25:32;;;;;;;;;;;;;;;-1.63;100.00;98847.91;5056181;28;19921;-83
2023/01/20 03:27:58;;;;;;;;;;;;;;;-1.58;100.00;98847.63;5056124;28;20265;-84
2023/01/20 03:30:24;;;;;;;;;;;;;;;-1.63;100.00;98850.47;5036146;28;20042;-85
2023/01/20 03:32:50;;;;;;;;;;;;;;;-1.66;100.00;98845.50;5056717;28;20000;-85
2023/01/20 03:35:16;;;;;;;;;;;;;;;-1.72;100.00;98851.00;5043537;28;20020;-85
2023/01/20 03:37:42;;;;;;;;;;;;;;;-1.67;100.00;98846.41;5046222;28;19949;-83
2023/01/20 03:40:08;;;;;;;;;;;;;;;-1.68;100.00;98849.91;5030465;28;19942;-85
2023/01/20 03:42:40;;;;;;;;;;;;;;;-1.69;100.00;98850.81;5047935;28;19916;-86
2023/01/20 03:45:09;;;;;;;;;;;;;;;-1.82;100.00;98857.56;5040250;28;19924;-85
2023/01/20 03:47:34;;;;;;;;;;;;;;;-1.89;100.00;98854.50;5052045;28;19917;-85
2023/01/20 03:50:02;;;;;;;;;;;;;;;-1.94;100.00;98855.66;5053433;28;19923;-83
2023/01/20 03:52:47;;;;;;;;;;;;;;;-1.96;100.00;98847.97;5026598;28;19917;-85
2023/01/20 03:55:20;;;;;;;;;;;;;;;-1.96;100.00;98852.31;5045690;28;19929;-86
2023/01/20 03:57:57;;;;;;;;;;;;;;;-1.95;100.00;98851.41;5040022;28;19917;-87
2023/01/20 04:00:25;;;;;;;;;;;;;;;-1.96;100.00;98849.72;5045789;28;19920;-87
2023/01/20 04:02:52;;;;;;;;;;;;;;;-1.96;100.00;98850.56;5020675;28;20007;-86
2023/01/20 04:05:17;;;;;;;;;;;;;;;-1.93;100.00;98857.31;5047805;28;20007;-86
2023/01/20 04:07:44;;;;;;;;;;;;;;;-1.95;100.00;98854.00;5048249;28;20013;-86
2023/01/20 04:10:11;;;;;;;;;;;;;;;-1.99;100.00;98855.06;5028889;28;19924;-85
2023/01/20 04:12:37;;;;;;;;;;;;;;;-1.98;100.00;98854.13;5046216;28;19923;-86
2023/01/20 04:15:04;;;;;;;;;;;;;;;-1.96;100.00;98847.16;5049799;28;19921;-85
2023/01/20 04:17:29;;;;;;;;;;;;;;;-1.98;100.00;98849.81;5047531;28;19927;-84
2023/01/20 04:19:56;;;;;;;;;;;;;;;-1.98;100.00;98843.81;5049636;28;19916;-84
2023/01/20 04:22:25;;;;;;;;;;;;;;;-1.99;100.00;98842.13;5046313;28;19925;-85
2023/01/20 04:24:53;;;;;;;;;;;;;;;-1.97;100.00;98850.66;5046365;28;19963;-84
2023/01/20 04:27:18;;;;;;;;;;;;;;;-1.99;100.00;98855.06;5050492;28;19927;-84
2023/01/20 04:29:44;;;;;;;;;;;;;;;-2.00;100.00;98856.00;5045304;28;19925;-84
2023/01/20 04:32:10;;;;;;;;;;;;;;;-2.06;100.00;98857.97;5050072;28;19917;-86
2023/01/20 04:34:36;;;;;;;;;;;;;;;-2.07;100.00;98856.31;5050752;28;19925;-83
2023/01/20 04:37:01;;;;;;;;;;;;;;;-2.04;100.00;98859.63;5051984;28;19916;-83
2023/01/20 04:39:26;;;;;;;;;;;;;;;-2.09;100.00;98863.31;5048582;28;19917;-85
2023/01/20 04:41:52;;;;;;;;;;;;;;;-2.09;100.00;98858.13;5048709;28;19920;-85
2023/01/20 04:44:17;;;;;;;;;;;;;;;-2.11;100.00;98865.13;5046564;28;19941;-85
2023/01/20 04:46:44;;;;;;;;;;;;;;;-2.09;100.00;98863.31;5047284;28;19924;-87
2023/01/20 04:49:09;;;;;;;;;;;;;;;-2.07;100.00;98866.66;5038656;28;19917;-85
2023/01/20 04:51:35;;;;;;;;;;;;;;;-2.12;100.00;98873.78;5053285;28;19931;-85
2023/01/20 04:54:00;;;;;;;;;;;;;;;-2.09;100.00;98873.66;5049281;28;19917;-84
2023/01/20 04:56:26;;;;;;;;;;;;;;;-2.16;100.00;98877.47;5052640;28;19916;-86
2023/01/20 04:58:51;;;;;;;;;;;;;;;-2.23;100.00;98880.44;5052628;28;20315;-86
2023/01/20 05:01:17;;;;;;;;;;;;;;;-2.20;100.00;98885.47;5054836;28;19928;-85
2023/01/20 05:03:42;;;;;;;;;;;;;;;-2.22;100.00;98885.53;5049597;28;19921;-85
2023/01/20 05:06:11;;;;;;;;;;;;;;;-2.25;100.00;98896.06;5052887;28;19916;-85
2023/01/20 05:08:36;;;;;;;;;;;;;;;-2.23;100.00;98894.19;5051834;28;19932;-85
2023/01/20 05:11:02;;;;;;;;;;;;;;;-2.20;100.00;98895.81;5051643;28;19917;-84
2023/01/20 05:13:27;;;;;;;;;;;;;;;-2.22;100.00;98908.78;5047962;28;19917;-87
2023/01/20 05:15:52;;;;;;;;;;;;;;;-2.23;100.00;98912.28;5046467;28;20296;-86
2023/01/20 05:18:18;;;;;;;;;;;;;;;-2.24;100.00;98914.97;5043265;28;19944;-86
2023/01/20 05:20:46;;;;;;;;;;;;;;;-2.33;100.00;98921.44;5008746;28;20290;-86
2023/01/20 05:23:12;;;;;;;;;;;;;;;-2.33;100.00;98920.59;5002806;28;19983;-86
2023/01/20 05:25:38;;;;;;;;;;;;;;;-2.31;100.00;98913.63;5009225;28;19957;-87
2023/01/20 05:28:03;;;;;;;;;;;;;;;-2.28;100.00;98919.44;5009977;28;19918;-86
2023/01/20 05:30:29;;;;;;;;;;;;;;;-2.26;100.00;98921.97;5011794;28;19913;-87
2023/01/20 05:32:54;;;;;;;;;;;;;;;-2.25;100.00;98918.47;5009261;28;19923;-87
2023/01/20 05:35:19;;;;;;;;;;;;;;;-2.22;100.00;98929.47;5009629;28;19921;-87
2023/01/20 05:37:45;;;;;;;;;;;;;;;-2.19;100.00;98929.34;5012432;28;19949;-86
2023/01/20 05:40:11;;;;;;;;;;;;;;;-2.18;100.00;98930.16;4989100;28;19923;-87
2023/01/20 05:42:36;;;;;;;;;;;;;;;-2.20;100.00;98930.25;5013796;28;20004;-86
2023/01/20 05:45:02;;;;;;;;;;;;;;;-2.21;100.00;98927.72;5015243;28;19955;-85
2023/01/20 05:47:27;;;;;;;;;;;;;;;-2.26;100.00;98927.97;5021122;28;19908;-83
2023/01/20 05:49:53;;;;;;;;;;;;;;;-2.27;100.00;98920.28;5027920;28;19905;-83
2023/01/20 05:52:18;;;;;;;;;;;;;;;-2.30;100.00;98926.47;5031022;28;19977;-82
2023/01/20 05:54:44;;;;;;;;;;;;;;;-2.30;100.00;98929.06;5012567;28;19921;-84
2023/01/20 05:57:09;;;;;;;;;;;;;;;-2.33;100.00;98931.78;5012111;28;19963;-83
2023/01/20 05:59:35;;;;;;;;;;;;;;;-2.36;100.00;98931.94;5013694;28;19928;-85
2023/01/20 06:02:00;;;;;;;;;;;;;;;-2.37;100.00;98935.44;5010417;28;19940;-85
2023/01/20 06:04:25;;;;;;;;;;;;;;;-2.37;100.00;98937.19;5013072;28;20020;-87
2023/01/20 06:06:51;;;;;;;;;;;;;;;-2.40;100.00;98938.16;5021385;28;19921;-86
2023/01/20 06:09:16;;;;;;;;;;;;;;;-2.39;100.00;98932.09;5023689;28;19917;-85
2023/01/20 06:11:42;;;;;;;;;;;;;;;-2.40;100.00;98935.56;5008111;28;19928;-86
2023/01/20 06:14:07;;;;;;;;;;;;;;;-2.42;100.00;98932.25;5005429;28;20004;-84
2023/01/20 06:16:33;;;;;;;;;;;;;;;-2.40;100.00;98935.56;5003756;28;19987;-85
2023/01/20 06:18:58;;;;;;;;;;;;;;;-2.37;100.00;98935.44;5040145;28;19920;-82
2023/01/20 06:21:24;;;;;;;;;;;;;;;-2.41;100.00;98933.91;5045402;28;20007;-79
2023/01/20 06:23:49;;;;;;;;;;;;;;;-2.45;100.00;98937.56;5028463;28;19963;-79
2023/01/20 06:26:15;;;;;;;;;;;;;;;-2.54;100.00;98933.69;5044673;28;19917;-79
2023/01/20 06:28:41;;;;;;;;;;;;;;;-2.68;100.00;98943.03;5035257;28;19917;-79
2023/01/20 06:31:07;;;;;;;;;;;;;;;-2.73;100.00;98942.41;5018279;28;19963;-78
2023/01/20 06:33:33;;;;;;;;;;;;;;;-2.72;100.00;98944.09;5043568;28;19921;-78
2023/01/20 06:35:59;;;;;;;;;;;;;;;-2.72;100.00;98944.09;5044776;28;19959;-78
2023/01/20 06:38:25;;;;;;;;;;;;;;;-2.65;100.00;98948.06;5038896;28;19924;-79
2023/01/20 06:41:02;;;;;;;;;;;;;;;-2.56;100.00;98952.75;5021947;28;19923;-78
2023/01/20 06:43:28;;;;;;;;;;;;;;;-2.46;100.00;98956.53;5037099;28;19917;-78
2023/01/20 06:46:01;;;;;;;;;;;;;;;-2.43;100.00;98959.00;5039559;28;19924;-78
2023/01/20 06:48:27;;;;;;;;;;;;;;;-2.35;100.00;98954.25;5038095;28;19917;-79
2023/01/20 06:50:53;;;;;;;;;;;;;;;-2.32;100.00;98969.63;5049445;28;20333;-79
2023/01/20 06:53:19;;;;;;;;;;;;;;;-2.32;100.00;98961.88;5039447;28;19921;-77
2023/01/20 06:55:52;;;;;;;;;;;;;;;-2.28;100.00;98965.97;5038549;28;20007;-80
2023/01/20 06:58:17;;;;;;;;;;;;;;;-2.24;100.00;98974.41;5045616;28;19920;-78
2023/01/20 07:00:42;;;;;;;;;;;;;;;-2.23;100.00;98979.47;5027823;28;19925;-77
2023/01/20 07:03:08;;;;;;;;;;;;;;;-2.20;100.00;98981.94;5040122;28;20003;-76
2023/01/20 07:05:34;;;;;;;;;;;;;;;-2.16;100.00;98986.03;5051293;28;19944;-80
2023/01/20 07:07:59;;;;;;;;;;;;;;;-2.16;100.00;98991.19;5039853;28;19917;-81
2023/01/20 07:10:24;;;;;;;;;;;;;;;-2.17;100.00;98999.84;5046513;28;19917;-82
2023/01/20 07:12:50;;;;;;;;;;;;;;;-2.20;100.00;99000.03;5049907;28;19916;-80
2023/01/20 07:15:15;;;;;;;;;;;;;;;-2.22;100.00;99011.34;5043998;28;19944;-83
2023/01/20 07:17:41;;;;;;;;;;;;;;;-2.20;100.00;99005.19;5043918;28;19916;-82
2023/01/20 07:20:06;;;;;;;;;;;;;;;-2.18;100.00;99000.75;5050748;28;19944;-83
2023/01/20 07:22:32;;;;;;;;;;;;;;;-2.17;100.00;99002.44;5048612;28;19913;-83
2023/01/20 07:24:57;;;;;;;;;;;;;;;-2.18;100.00;98998.19;5043652;28;19921;-82
2023/01/20 07:27:23;;;;;;;;;;;;;;;-2.15;100.00;99003.22;5046719;28;19947;-81
2023/01/20 07:29:48;;;;;;;;;;;;;;;-2.12;100.00;99002.22;5043913;28;19979;-81
2023/01/20 07:32:14;;;;;;;;;;;;;;;-2.09;100.00;98997.72;5048675;28;19916;-81
2023/01/20 07:34:39;;;;;;;;;;;;;;;-2.06;100.00;98997.56;5046983;28;19923;-82
2023/01/20 07:37:04;;;;;;;;;;;;;;;-1.98;100.00;99004.94;5046923;28;19917;-81
2023/01/20 07:39:30;;;;;;;;;;;;;;;-1.96;100.00;99012.63;5047743;28;19963;-81
2023/01/20 07:41:55;;;;;;;;;;;;;;;-1.94;100.00;99013.41;5046799;28;20016;-81
2023/01/20 07:44:21;;;;;;;;;;;;;;;-1.89;100.00;99008.81;5044680;28;19925;-81
2023/01/20 07:46:46;;;;;;;;;;;;;;;-1.95;100.00;99015.13;5045319;28;19917;-81
2023/01/20 07:49:11;;;;;;;;;;;;;;;-1.95;100.00;99014.31;5050986;28;19952;-82
2023/01/20 07:51:38;;;;;;;;;;;;;;;-2.02;100.00;99012.94;5051328;28;20007;-82
2023/01/20 07:54:04;;;;;;;;;;;;;;;-2.03;100.00;99016.44;5051849;28;19924;-81
2023/01/20 07:56:29;;;;;;;;;;;;;;;-1.98;100.00;99014.44;5031964;28;19912;-82
2023/01/20 07:58:55;;;;;;;;;;;;;;;-1.97;100.00;99011.78;5051408;28;19925;-81
2023/01/20 08:01:26;;;;;;;;;;;;;;;-1.92;100.00;99024.47;5055207;28;19967;-82
2023/01/20 08:03:51;;;;;;;;;;;;;;;-1.87;100.00;99032.81;5047206;28;19917;-81
2023/01/20 08:06:18;;;;;;;;;;;;;;;-1.81;100.00;99033.34;5050854;28;20057;-82
2023/01/20 08:08:44;;;;;;;;;;;;;;;-1.77;100.00;99039.22;5035417;28;20354;-82
2023/01/20 08:11:10;;;;;;;;;;;;;;;-1.68;100.00;99038.75;5053077;28;19923;-81
2023/01/20 08:13:36;;;;;;;;;;;;;;;-1.61;100.00;99039.25;5054520;28;20403;-82
2023/01/20 08:16:02;;;;;;;;;;;;;;;-1.56;100.00;99043.28;5049377;28;19925;-82
2023/01/20 08:18:28;;;;;;;;;;;;;;;-1.50;100.00;99053.31;5055596;28;19917;-82
2023/01/20 08:20:53;;;;;;;;;;;;;;;-1.43;100.00;99048.66;5064860;28;19924;-82
2023/01/20 08:23:19;;;;;;;;;;;;;;;-1.40;100.00;99054.50;5041685;28;19943;-80
2023/01/20 08:25:44;;;;;;;;;;;;;;;-1.39;100.00;99056.16;5047628;28;20280;-82
2023/01/20 08:28:10;;;;;;;;;;;;;;;-1.33;100.00;99061.03;5050079;28;19951;-83
2023/01/20 08:30:35;;;;;;;32.10;22.50;;;;;;;-1.25;100.00;99068.41;5037265;28;21074;-82
2023/01/20 08:33:01;;;;;;;;;;;;;;;-1.21;100.00;99069.91;5043353;28;20033;-82
2023/01/20 08:35:26;;;;;;;;;;;;;;;-1.23;100.00;99077.75;5045294;28;19936;-83
2023/01/20 08:37:51;;;;;;;;;;;;;;;-1.18;100.00;99068.91;5047928;28;19917;-83
2023/01/20 08:40:17;;;;;;;;;;;;;;;-1.15;100.00;99074.75;5055854;28;19916;-82
2023/01/20 08:42:42;;;;;;;;;;;;;;;-1.18;100.00;99080.09;5028487;28;19920;-81
2023/01/20 08:45:08;;;;;;;;;;;;;;;-1.12;100.00;99084.94;5033886;28;19917;-81
2023/01/20 08:47:37;;;;;;;;;;;;;;;-1.10;100.00;99072.75;5038757;28;19958;-79
2023/01/20 08:50:03;;;;;;;;;;;;;;;-1.07;100.00;99089.88;5028829;28;19927;-79
2023/01/20 08:52:28;;;;;;;;;;;;;;;-1.13;100.00;99082.44;5030752;28;19917;-80
2023/01/20 08:54:54;;;;;;;;;;;;;;;-1.19;100.00;99087.94;5045457;28;19971;-79
2023/01/20 08:57:19;;;;;;;;;;;;;;;-1.20;100.00;99091.44;5022340;28;19960;-78
2023/01/20 08:59:46;;;;;;;;;;;;;;;-1.16;100.00;99093.78;5023904;28;19956;-76
2023/01/20 09:02:11;;;;;;;;;;;;;;;-1.12;100.00;99094.47;5018777;28;20427;-76
2023/01/20 09:04:37;;;;;;;;;;;;;;;-1.11;100.00;99101.31;5019812;28;19924;-77
2023/01/20 09:07:03;;;;;;;;;;;;;;;-1.36;100.00;99112.97;5020604;28;19925;-78
2023/01/20 09:09:28;;;;;;;;;;;;;;;-1.34;100.00;99099.94;5020796;28;19921;-76
2023/01/20 09:11:54;;;;;;;;;;;;;;;-1.42;100.00;99108.09;5019581;28;19932;-77
2023/01/20 09:14:20;;;;;;;;;;;;;;;-1.47;100.00;99112.66;5000558;28;19925;-75
2023/01/20 09:16:45;;;;;;;;;;;;;;;-1.35;100.00;99109.44;5022118;28;19917;-80
2023/01/20 09:19:11;;;;;;;;;;;;;;;-1.37;100.00;99111.28;5030256;28;19917;-79
2023/01/20 09:21:36;;;;;;;;;;;;;;;-1.35;100.00;99117.19;5034873;28;19916;-78
2023/01/20 09:24:02;;;;;;;;;;;;;;;-1.34;100.00;99116.28;5044580;28;19921;-78
2023/01/20 09:26:37;;;;;;;;;;;;;;;-1.23;100.00;99118.31;5034754;28;19918;-79
2023/01/20 09:29:07;;;;;;;;;;;;;;;-1.13;100.00;99116.94;5024980;28;20349;-78
2023/01/20 09:31:33;;;;;;;;;;;;;;;-1.01;100.00;99118.88;5042352;28;19921;-79
2023/01/20 09:33:59;;;;;;;;;;;;;;;-0.86;100.00;99114.63;5029440;28;19923;-80
2023/01/20 09:36:28;;;;;;;;;;;;;;;-0.71;100.00;99119.00;5050565;28;19912;-79
2023/01/20 09:44:42;;;;;;;;;;;;;;;-0.29;100.00;99112.34;5046907;28;20007;-79
2023/01/20 09:47:22;;;;;;;;;;;;;;;-0.17;100.00;99116.84;5050011;28;19924;-79
2023/01/20 09:53:03;;;;;;;;;;;;;;;0.06;100.00;99118.16;5043553;28;20293;-80
2023/01/20 09:55:48;;;;;;;;;;;;;;;0.09;100.00;99112.78;5052099;28;19917;-79
2023/01/20 09:58:24;;;;;;;;;;;;;;;0.09;100.00;99113.63;5055758;28;19920;-77
2023/01/20 10:01:06;;;;;;;;;;;;;;;0.11;100.00;99116.97;5040912;28;20297;-78
2023/01/20 10:03:38;;;;;;;;;;;;;;;0.13;100.00;99120.28;5049526;28;19999;-79
2023/01/20 10:06:08;;;;;;;;;;;;;;;0.18;100.00;99120.88;5047466;28;20297;-79
2023/01/20 10:08:54;;;;;;;;;;;;;;;0.26;100.00;99121.25;5048442;28;20058;-79
2023/01/20 10:11:20;;;;;;;;;;;;;;;0.31;100.00;99121.84;5050499;28;20396;-79
2023/01/20 10:13:57;;;;;;;;;;;;;;;0.36;100.00;99126.75;5057554;28;19970;-78
2023/01/20 10:16:34;;;;;;;;;;;;;;;0.40;100.00;99126.50;5050032;28;19962;-79
2023/01/20 10:19:03;;;;;;;;;;;;;;;0.43;100.00;99122.03;5049895;28;19963;-80
2023/01/20 10:21:35;;;;;;;;;;;;;;;0.44;100.00;99124.56;5059621;28;19917;-79
2023/01/20 10:24:07;;;;;;;;;;;;;;;0.41;100.00;99114.38;5058206;28;19943;-80
2023/01/20 10:26:37;;;;;;;;;;;;;;;0.44;100.00;99118.53;5060913;28;19921;-78
2023/01/20 10:29:05;;;;;;;;;;;;;;;0.41;100.00;99115.16;5057479;28;19944;-79
2023/01/20 10:31:37;;;;;;;;;;;;;;;0.48;100.00;99120.00;5059763;28;19924;-78
2023/01/20 10:34:10;;;;;;;;;;;;;;;0.52;100.00;99113.72;5058510;28;19927;-79
2023/01/20 10:36:38;;;;;;;;;;;;;;;0.60;100.00;99114.09;5050305;28;21362;-78
2023/01/20 10:39:09;;;;;;;;;;;;;;;0.66;100.00;99113.72;5059829;28;19963;-78
2023/01/20 10:41:38;;;;;;;;;;;;;;;0.73;100.00;99113.28;5048636;28;20004;-78
2023/01/20 10:44:08;;;;;;;;;;;;;;;0.81;100.00;99108.47;5050525;28;19921;-79
2023/01/20 10:46:44;;;;;;;;;;;;;;;0.87;100.00;99101.22;5056889;28;19921;-78
2023/01/20 10:49:37;;;;;;;;;;;;;;;0.95;100.00;99101.56;5041683;28;20290;-80
2023/01/20 10:52:06;;;;;;;;;;;;;;;1.04;100.00;99099.25;5062320;28;19952;-78
2023/01/20 10:54:40;;;;;;;;;;;;;;;1.07;100.00;99091.28;5055415;28;20419;-79
2023/01/20 10:57:09;;;;;;;;;;;;;;;1.16;100.00;99101.09;5055994;28;20416;-78
2023/01/20 10:59:52;;;;;;;;;;;;;;;1.26;100.00;99097.94;5033398;28;19917;-78
2023/01/20 11:02:21;;;;;;;;;;;;;;;1.37;100.00;99096.31;5044317;28;19955;-79
2023/01/20 11:04:50;;;;;;;;;;;;;;;1.47;100.00;99091.41;5034942;28;20284;-79
2023/01/20 11:07:16;;;;;;;;;;;;;;;1.57;100.00;99098.50;5053038;28;19920;-78
2023/01/20 11:09:42;;;;;;;;;;;;;;;1.65;100.00;99100.59;5043489;28;19917;-80
2023/01/20 11:12:13;;;;;;;;;;;;;;;1.72;100.00;99096.69;5033441;28;19924;-79
2023/01/20 11:14:39;;;;;;;;;;;;;;;1.81;100.00;99101.31;5050393;28;19939;-79
2023/01/20 11:17:06;;;;;;;;;;;;;;;1.90;100.00;99103.31;5043871;28;19917;-78
2023/01/20 11:19:43;;;;;;;;;;;;;;;1.99;100.00;99105.31;5053183;28;20281;-79
2023/01/20 11:22:10;;;;;;;;;;;;;;;2.08;100.00;99101.28;5048090;28;20269;-78
2023/01/20 11:24:40;;;;;;;;;;;;;;;2.17;100.00;99094.63;5050728;28;19917;-79
2023/01/20 11:27:10;;;;;;;;;;;;;;;2.24;100.00;99098.50;5051416;28;20337;-80
2023/01/20 11:29:56;;;;;;;;;;;;;;;2.31;100.00;99095.38;5046253;28;19970;-79
2023/01/20 11:32:26;;;;;;;;;;;;;;;2.36;100.00;99089.84;5050457;28;19923;-79
2023/01/20 11:34:52;;;;;;;;;;;;;;;2.43;100.00;99084.16;5055147;28;19942;-80
2023/01/20 11:37:19;;;;;;;;;;;;;;;2.50;100.00;99084.56;5046738;28;19924;-77
2023/01/20 11:39:47;;;;;;;;;;;;;;;2.57;100.00;99085.81;5046465;28;19916;-79
2023/01/20 11:42:15;;;;;;;;;;;;;;;2.64;100.00;99076.66;5042394;28;19927;-78
2023/01/20 11:44:47;;;;;;;;;;;;;;;2.70;100.00;99068.44;5052100;28;20349;-80
2023/01/20 11:47:15;;;;;;;;;;;;;;;2.78;100.00;99067.88;5047718;28;19928;-77
2023/01/20 11:49:41;;;;;;;;;;;;;;;2.83;100.00;99069.22;5051406;28;19917;-78
2023/01/20 11:52:18;;;;;;;;;;;;;;;2.94;100.00;99080.69;5057960;28;19932;-78
2023/01/20 11:54:43;;;;;;;;;;;;;;;2.99;100.00;99070.78;5061441;28;20000;-78
2023/01/20 11:57:14;;;;;;;;;;;;;;;3.08;100.00;99064.91;5051992;28;19929;-78
2023/01/20 11:59:46;;;;;;;;;;;;;;;3.22;100.00;99072.63;5057391;28;20631;-78
2023/01/20 12:02:11;;;;;;;;;;;;;;;3.34;100.00;99070.91;5049327;28;19932;-77
2023/01/20 12:04:43;;;;;;;;;;;;;;;3.44;100.00;99062.31;5057602;28;19982;-78
2023/01/20 12:07:14;;;;;;;;;;;;;;;3.60;100.00;99073.31;5061038;28;20262;-78
2023/01/20 12:09:42;;;;;;;;;;;;;;;3.71;100.00;99065.53;5059592;28;19923;-78
2023/01/20 12:12:14;;;;;;;;;;;;;;;3.77;100.00;99069.47;5054720;28;19987;-77
2023/01/20 12:14:45;;;;;;;;;;;;;;;3.83;100.00;99068.22;5061926;28;19916;-78
2023/01/20 12:17:40;;;;;;;;;;;;;;;3.92;100.00;99064.91;5050287;28;20356;-77
2023/01/20 12:20:23;;;;;;;;;;;;;;;4.03;100.00;99059.72;5040185;28;19917;-78
2023/01/20 12:22:48;;;;;;;;;;;;;;;4.16;100.00;99059.66;5035058;28;20262;-79
2023/01/20 12:25:26;;;;;;;;;;;;;;;4.25;100.00;99049.34;5057812;28;19921;-79
2023/01/20 12:27:56;;;;;;;;;;;;;;;4.37;100.00;99053.66;5055988;28;19916;-80
2023/01/20 12:30:51;;;;;;;;;;;;;;;4.45;100.00;99051.28;5056332;28;19928;-79
2023/01/20 12:33:19;;;;;;;;;;;;;;;4.58;100.00;99055.59;5041882;28;19942;-79
2023/01/20 12:36:03;;;;;;;;;;;;;;;4.66;100.00;99053.19;5058406;28;19940;-78
2023/01/20 12:38:35;;;;;;;;;;;;;;;4.69;100.00;99052.97;5056675;28;20027;-79
2023/01/20 12:41:04;;;;;;;;;;;;;;;4.68;100.00;99051.31;5058945;28;20023;-78
2023/01/20 12:43:30;;;;;;;;;;;;;;;4.70;100.00;99049.44;5055724;28;19916;-79
2023/01/20 12:46:04;;;;;;;;;;;;;;;4.72;100.00;99052.72;5051166;28;19932;-77